EZY52GN GVAC-EGCC
Flight info
| Callsign | EZY52GN |
|---|---|
| Flight time | N/A |
| Altitude | 35000 |
| Route | DIMKI1A DIMKI DCT IPERA N873 LIMAL/N0440F340 DCT URQUI DCT GOMER/N0444F360 DCT PITAB DCT BIMBO DCT ROLAR DCT TABAX DCT VEDEL DCT MIMBO DCT RIPEL DCT ADVAT/M076F370 T290 GELPO DCT JABEX/N0437F370 DCT BIBLA DCT GOTEM DCT BOFUM Q37 MALUD |
| Aircraft | A320/M-SDE2E3FGHIJ1RWXYZ/LB1 |
Departure
| Time | 2026-04-26 13:01 |
|---|---|
| Airport | Amílcar Cabral International Airport (GVAC) |
Arrival
| Time | N/A |
|---|---|
| Airport | Manchester Airport (EGCC) |
| Time | Latitude | Longitude | Altitude | Speed | Heading |
|---|---|---|---|---|---|
| 2026-04-26 12:22 | 16.73430 | -22.94494 | 201 ft | 0 kts | 90° |
| 2026-04-26 12:50 | 16.73430 | -22.94505 | 214 ft | 4 kts | 91° |
| 2026-04-26 12:50 | 16.73431 | -22.94534 | 200 ft | 4 kts | 95° |
| 2026-04-26 12:50 | 16.73435 | -22.94561 | 200 ft | 4 kts | 104° |
| 2026-04-26 12:51 | 16.73444 | -22.94587 | 214 ft | 4 kts | 133° |
| 2026-04-26 12:51 | 16.73459 | -22.94596 | 200 ft | 1 kts | 180° |
| 2026-04-26 12:51 | 16.73462 | -22.94596 | 200 ft | 0 kts | 180° |
| 2026-04-26 12:56 | 16.73444 | -22.94596 | 204 ft | 7 kts | 179° |
| 2026-04-26 12:56 | 16.73375 | -22.94595 | 200 ft | 14 kts | 179° |
| 2026-04-26 12:57 | 16.73246 | -22.94595 | 200 ft | 21 kts | 181° |
| 2026-04-26 12:57 | 16.73105 | -22.94599 | 208 ft | 19 kts | 199° |
| 2026-04-26 12:57 | 16.73019 | -22.94687 | 210 ft | 16 kts | 200° |
| 2026-04-26 12:58 | 16.72764 | -22.94689 | 191 ft | 26 kts | 182° |
| 2026-04-26 12:58 | 16.72579 | -22.94689 | 184 ft | 26 kts | 179° |
| 2026-04-26 12:58 | 16.72421 | -22.94708 | 183 ft | 19 kts | 232° |
| 2026-04-26 12:58 | 16.72400 | -22.94830 | 185 ft | 15 kts | 259° |
| 2026-04-26 12:59 | 16.72325 | -22.94882 | 191 ft | 18 kts | 190° |
| 2026-04-26 12:59 | 16.72225 | -22.94815 | 193 ft | 16 kts | 152° |
| 2026-04-26 12:59 | 16.72166 | -22.94862 | 201 ft | 12 kts | 297° |
| 2026-04-26 12:59 | 16.72239 | -22.94885 | 184 ft | 9 kts | 359° |
| 2026-04-26 13:00 | 16.72316 | -22.94888 | 188 ft | 24 kts | 358° |
| 2026-04-26 13:00 | 16.72720 | -22.94889 | 186 ft | 89 kts | 359° |
| 2026-04-26 13:00 | 16.73522 | -22.94894 | 192 ft | 140 kts | 360° |
| 2026-04-26 13:00 | 16.74595 | -22.94884 | 483 ft | 159 kts | 357° |
| 2026-04-26 13:01 | 16.75721 | -22.94878 | 1051 ft | 168 kts | 4° |
| 2026-04-26 13:01 | 16.76925 | -22.94880 | 1439 ft | 185 kts | 1° |
| 2026-04-26 13:01 | 16.78291 | -22.94894 | 1668 ft | 207 kts | 0° |
| 2026-04-26 13:01 | 16.79801 | -22.94914 | 2054 ft | 222 kts | 1° |
| 2026-04-26 13:02 | 16.81352 | -22.94935 | 2735 ft | 223 kts | 0° |
| 2026-04-26 13:02 | 16.82921 | -22.94954 | 3346 ft | 228 kts | 1° |
| 2026-04-26 13:02 | 16.84521 | -22.94970 | 3981 ft | 231 kts | 359° |
| 2026-04-26 13:02 | 16.86156 | -22.94965 | 4645 ft | 233 kts | 3° |
| 2026-04-26 13:03 | 16.87704 | -22.94470 | 5286 ft | 236 kts | 26° |
| 2026-04-26 13:03 | 16.89176 | -22.93573 | 5561 ft | 256 kts | 27° |
| 2026-04-26 13:03 | 16.90752 | -22.92597 | 5775 ft | 277 kts | 27° |
| 2026-04-26 13:03 | 16.92439 | -22.91540 | 6242 ft | 287 kts | 27° |
| 2026-04-26 13:04 | 16.94162 | -22.90451 | 6825 ft | 292 kts | 27° |
| 2026-04-26 13:04 | 16.95917 | -22.89337 | 7393 ft | 298 kts | 27° |
| 2026-04-26 13:04 | 16.97700 | -22.88208 | 7983 ft | 302 kts | 27° |
| 2026-04-26 13:04 | 16.99506 | -22.87066 | 8616 ft | 305 kts | 27° |
| 2026-04-26 13:05 | 17.01330 | -22.85915 | 9223 ft | 308 kts | 27° |
| 2026-04-26 13:05 | 17.03183 | -22.84750 | 9809 ft | 313 kts | 27° |
| 2026-04-26 13:05 | 17.05076 | -22.83563 | 10179 ft | 326 kts | 27° |
| 2026-04-26 13:05 | 17.07085 | -22.82306 | 10318 ft | 346 kts | 27° |
| 2026-04-26 13:06 | 17.09204 | -22.80977 | 10532 ft | 363 kts | 27° |
| 2026-04-26 13:06 | 17.11391 | -22.79598 | 10976 ft | 370 kts | 28° |
| 2026-04-26 13:06 | 17.13598 | -22.78201 | 11539 ft | 372 kts | 28° |
| 2026-04-26 13:06 | 17.15819 | -22.76792 | 12103 ft | 375 kts | 28° |
| 2026-04-26 13:07 | 17.18055 | -22.75371 | 12680 ft | 377 kts | 28° |
| 2026-04-26 13:07 | 17.20304 | -22.73948 | 13258 ft | 379 kts | 28° |
| 2026-04-26 13:07 | 17.22566 | -22.72520 | 13832 ft | 381 kts | 28° |
| 2026-04-26 13:07 | 17.24843 | -22.71083 | 14335 ft | 383 kts | 28° |
| 2026-04-26 13:08 | 17.27128 | -22.69641 | 14821 ft | 385 kts | 28° |
| 2026-04-26 13:08 | 17.29431 | -22.68187 | 15285 ft | 388 kts | 27° |
| 2026-04-26 13:08 | 17.31751 | -22.66723 | 15742 ft | 391 kts | 27° |
| 2026-04-26 13:08 | 17.34086 | -22.65249 | 16210 ft | 393 kts | 27° |
| 2026-04-26 13:09 | 17.36433 | -22.63767 | 16660 ft | 396 kts | 27° |
| 2026-04-26 13:09 | 17.38796 | -22.62273 | 17079 ft | 398 kts | 27° |
| 2026-04-26 13:09 | 17.41175 | -22.60767 | 17507 ft | 401 kts | 27° |
| 2026-04-26 13:09 | 17.43569 | -22.59250 | 17949 ft | 403 kts | 27° |
| 2026-04-26 13:10 | 17.45977 | -22.57724 | 18369 ft | 406 kts | 27° |
| 2026-04-26 13:10 | 17.48399 | -22.56191 | 18742 ft | 408 kts | 26° |
| 2026-04-26 13:10 | 17.50832 | -22.54651 | 19120 ft | 409 kts | 26° |
| 2026-04-26 13:10 | 17.53273 | -22.53104 | 19501 ft | 411 kts | 26° |
| 2026-04-26 13:11 | 17.55721 | -22.51551 | 19885 ft | 412 kts | 26° |
| 2026-04-26 13:11 | 17.58173 | -22.49992 | 20261 ft | 413 kts | 26° |
| 2026-04-26 13:11 | 17.60636 | -22.48427 | 20623 ft | 414 kts | 26° |
| 2026-04-26 13:11 | 17.63105 | -22.46860 | 20984 ft | 416 kts | 26° |
| 2026-04-26 13:12 | 17.65585 | -22.45286 | 21351 ft | 417 kts | 26° |
| 2026-04-26 13:12 | 17.68073 | -22.43706 | 21682 ft | 419 kts | 26° |
| 2026-04-26 13:12 | 17.70572 | -22.42117 | 22020 ft | 421 kts | 26° |
| 2026-04-26 13:12 | 17.73078 | -22.40523 | 22364 ft | 422 kts | 26° |
| 2026-04-26 13:13 | 17.75596 | -22.38924 | 22695 ft | 424 kts | 25° |
| 2026-04-26 13:13 | 17.78120 | -22.37322 | 23032 ft | 425 kts | 25° |
| 2026-04-26 13:13 | 17.80653 | -22.35710 | 23350 ft | 427 kts | 25° |
| 2026-04-26 13:13 | 17.83196 | -22.34093 | 23656 ft | 428 kts | 25° |
| 2026-04-26 13:14 | 17.85750 | -22.32470 | 23914 ft | 430 kts | 25° |
| 2026-04-26 13:14 | 17.88312 | -22.30842 | 24165 ft | 432 kts | 25° |
| 2026-04-26 13:14 | 17.90886 | -22.29202 | 24408 ft | 433 kts | 25° |
| 2026-04-26 13:14 | 17.93465 | -22.27556 | 24644 ft | 435 kts | 25° |
| 2026-04-26 13:15 | 17.96058 | -22.25900 | 24877 ft | 437 kts | 25° |
| 2026-04-26 13:15 | 17.98664 | -22.24237 | 25115 ft | 439 kts | 25° |
| 2026-04-26 13:15 | 18.01278 | -22.22566 | 25348 ft | 441 kts | 25° |
| 2026-04-26 13:15 | 18.03012 | -22.21457 | 25489 ft | 442 kts | 25° |
| 2026-04-26 13:16 | 18.06537 | -22.19206 | 25803 ft | 444 kts | 24° |
| 2026-04-26 13:16 | 18.09185 | -22.17521 | 26021 ft | 446 kts | 24° |
| 2026-04-26 13:16 | 18.11843 | -22.15828 | 26246 ft | 448 kts | 24° |
| 2026-04-26 13:16 | 18.14511 | -22.14128 | 26479 ft | 449 kts | 24° |
| 2026-04-26 13:17 | 18.19876 | -22.10704 | 26933 ft | 453 kts | 24° |
| 2026-04-26 13:17 | 18.22571 | -22.08976 | 27154 ft | 455 kts | 24° |
| 2026-04-26 13:18 | 18.27991 | -22.05501 | 27597 ft | 458 kts | 24° |
| 2026-04-26 13:18 | 18.30717 | -22.03754 | 27811 ft | 459 kts | 24° |
| 2026-04-26 13:18 | 18.36198 | -22.00243 | 28225 ft | 463 kts | 24° |
| 2026-04-26 13:19 | 18.38953 | -21.98475 | 28422 ft | 464 kts | 24° |
| 2026-04-26 13:19 | 18.41717 | -21.96703 | 28616 ft | 466 kts | 24° |
| 2026-04-26 13:19 | 18.44492 | -21.94927 | 28814 ft | 468 kts | 23° |
| 2026-04-26 13:19 | 18.47276 | -21.93144 | 29037 ft | 469 kts | 23° |
| 2026-04-26 13:20 | 18.50066 | -21.91351 | 29248 ft | 470 kts | 23° |
| 2026-04-26 13:20 | 18.52821 | -21.89577 | 29446 ft | 471 kts | 23° |
| 2026-04-26 13:20 | 18.55624 | -21.87771 | 29629 ft | 473 kts | 23° |
| 2026-04-26 13:20 | 18.58429 | -21.85968 | 29901 ft | 472 kts | 23° |
| 2026-04-26 13:21 | 18.61228 | -21.84169 | 30180 ft | 471 kts | 23° |
| 2026-04-26 13:21 | 18.63117 | -21.82955 | 30328 ft | 471 kts | 23° |
| 2026-04-26 13:21 | 18.66818 | -21.80574 | 30619 ft | 470 kts | 23° |
| 2026-04-26 13:21 | 18.69615 | -21.78774 | 30817 ft | 471 kts | 23° |
| 2026-04-26 13:22 | 18.72410 | -21.76973 | 31015 ft | 471 kts | 23° |
| 2026-04-26 13:22 | 18.75208 | -21.75172 | 31240 ft | 471 kts | 22° |
| 2026-04-26 13:22 | 18.78001 | -21.73371 | 31458 ft | 471 kts | 22° |
| 2026-04-26 13:22 | 18.80791 | -21.71567 | 31675 ft | 470 kts | 22° |
| 2026-04-26 13:23 | 18.83581 | -21.69762 | 31945 ft | 470 kts | 22° |
| 2026-04-26 13:23 | 18.86366 | -21.67962 | 32181 ft | 469 kts | 22° |
| 2026-04-26 13:23 | 18.89152 | -21.66165 | 32383 ft | 469 kts | 22° |
| 2026-04-26 13:23 | 18.91935 | -21.64371 | 32602 ft | 469 kts | 22° |
| 2026-04-26 13:24 | 18.94718 | -21.62576 | 32822 ft | 468 kts | 21° |
| 2026-04-26 13:24 | 18.97498 | -21.60785 | 33049 ft | 468 kts | 21° |
| 2026-04-26 13:24 | 19.00276 | -21.58991 | 33263 ft | 468 kts | 21° |
| 2026-04-26 13:24 | 19.03052 | -21.57195 | 33489 ft | 468 kts | 21° |
| 2026-04-26 13:25 | 19.05826 | -21.55400 | 33709 ft | 467 kts | 21° |
| 2026-04-26 13:25 | 19.08600 | -21.53606 | 33924 ft | 467 kts | 21° |
| 2026-04-26 13:25 | 19.11374 | -21.51810 | 34129 ft | 467 kts | 21° |
| 2026-04-26 13:25 | 19.14141 | -21.50015 | 34315 ft | 467 kts | 21° |
| 2026-04-26 13:26 | 19.16906 | -21.48221 | 34522 ft | 466 kts | 21° |
| 2026-04-26 13:26 | 19.19673 | -21.46423 | 34705 ft | 467 kts | 21° |
| 2026-04-26 13:26 | 19.22438 | -21.44627 | 34861 ft | 467 kts | 21° |
| 2026-04-26 13:26 | 19.25203 | -21.42829 | 35011 ft | 467 kts | 20° |
| 2026-04-26 13:27 | 19.27966 | -21.41033 | 35057 ft | 465 kts | 20° |
| 2026-04-26 13:27 | 19.33479 | -21.37452 | 35058 ft | 464 kts | 20° |
| 2026-04-26 13:28 | 19.38987 | -21.33875 | 35053 ft | 464 kts | 20° |
| 2026-04-26 13:28 | 19.44495 | -21.30303 | 35057 ft | 464 kts | 20° |
| 2026-04-26 13:29 | 19.50001 | -21.26722 | 35053 ft | 465 kts | 21° |
| 2026-04-26 13:29 | 19.55503 | -21.23130 | 35084 ft | 464 kts | 20° |
| 2026-04-26 13:30 | 19.61004 | -21.19541 | 35077 ft | 464 kts | 20° |
| 2026-04-26 13:30 | 19.66500 | -21.15946 | 35075 ft | 464 kts | 20° |
| 2026-04-26 13:31 | 19.71998 | -21.12347 | 35087 ft | 464 kts | 20° |
| 2026-04-26 13:31 | 19.77500 | -21.08759 | 35073 ft | 464 kts | 20° |
| 2026-04-26 13:32 | 19.82961 | -21.05189 | 35067 ft | 464 kts | 20° |
| 2026-04-26 13:32 | 19.88462 | -21.01593 | 35090 ft | 464 kts | 21° |
| 2026-04-26 13:33 | 19.93955 | -20.97999 | 35085 ft | 464 kts | 21° |
| 2026-04-26 13:33 | 19.99441 | -20.94391 | 35076 ft | 463 kts | 21° |
| 2026-04-26 13:34 | 20.04916 | -20.90785 | 35071 ft | 463 kts | 21° |
| 2026-04-26 13:34 | 20.10398 | -20.87190 | 35066 ft | 463 kts | 20° |
| 2026-04-26 13:35 | 20.15875 | -20.83597 | 35061 ft | 463 kts | 21° |
| 2026-04-26 13:35 | 20.21348 | -20.79989 | 35077 ft | 463 kts | 21° |
| 2026-04-26 13:36 | 20.26820 | -20.76381 | 35063 ft | 463 kts | 21° |
| 2026-04-26 13:36 | 20.32298 | -20.72770 | 35057 ft | 463 kts | 21° |
| 2026-04-26 13:37 | 20.37778 | -20.69155 | 35056 ft | 463 kts | 21° |
| 2026-04-26 13:37 | 20.43290 | -20.65610 | 35058 ft | 462 kts | 20° |
| 2026-04-26 13:38 | 20.47929 | -20.62681 | 35062 ft | 463 kts | 20° |
| 2026-04-26 13:38 | 20.53462 | -20.59174 | 35097 ft | 463 kts | 20° |
| 2026-04-26 13:39 | 20.58985 | -20.55645 | 35089 ft | 462 kts | 20° |
| 2026-04-26 13:39 | 20.64497 | -20.52112 | 35083 ft | 462 kts | 20° |
| 2026-04-26 13:40 | 20.69966 | -20.48597 | 35079 ft | 462 kts | 20° |
| 2026-04-26 13:40 | 20.75476 | -20.45053 | 35083 ft | 462 kts | 20° |
| 2026-04-26 13:41 | 20.80990 | -20.41515 | 35079 ft | 462 kts | 20° |
| 2026-04-26 13:41 | 20.86509 | -20.37983 | 35074 ft | 463 kts | 20° |
| 2026-04-26 13:42 | 20.92012 | -20.34432 | 35067 ft | 461 kts | 20° |
| 2026-04-26 13:42 | 20.97503 | -20.30883 | 35064 ft | 461 kts | 20° |
| 2026-04-26 13:43 | 21.03001 | -20.27343 | 35063 ft | 461 kts | 20° |
| 2026-04-26 13:43 | 21.08502 | -20.23809 | 35066 ft | 461 kts | 20° |
| 2026-04-26 13:44 | 21.13999 | -20.20267 | 35063 ft | 461 kts | 20° |
| 2026-04-26 13:44 | 21.19490 | -20.16717 | 35060 ft | 461 kts | 20° |
| 2026-04-26 13:45 | 21.24979 | -20.13164 | 35110 ft | 461 kts | 20° |
| 2026-04-26 13:45 | 21.30481 | -20.09602 | 35083 ft | 462 kts | 20° |
| 2026-04-26 13:46 | 21.35987 | -20.06040 | 35068 ft | 462 kts | 20° |
| 2026-04-26 13:46 | 21.41491 | -20.02471 | 35064 ft | 462 kts | 20° |
| 2026-04-26 13:47 | 21.46997 | -19.98898 | 35060 ft | 463 kts | 20° |
| 2026-04-26 13:47 | 21.52503 | -19.95318 | 35061 ft | 463 kts | 20° |
| 2026-04-26 13:48 | 21.58008 | -19.91737 | 35083 ft | 462 kts | 20° |
| 2026-04-26 13:48 | 21.63507 | -19.88159 | 35078 ft | 462 kts | 20° |
| 2026-04-26 13:49 | 21.69004 | -19.84570 | 35068 ft | 462 kts | 20° |
| 2026-04-26 13:49 | 21.74465 | -19.81016 | 35063 ft | 462 kts | 20° |
| 2026-04-26 13:50 | 21.79961 | -19.77441 | 35068 ft | 462 kts | 20° |
| 2026-04-26 13:50 | 21.85467 | -19.73855 | 35058 ft | 463 kts | 20° |
| 2026-04-26 13:51 | 21.90976 | -19.70254 | 35086 ft | 464 kts | 21° |
| 2026-04-26 13:51 | 21.96488 | -19.66644 | 35080 ft | 464 kts | 21° |
| 2026-04-26 13:52 | 22.01998 | -19.63021 | 35072 ft | 464 kts | 21° |
| 2026-04-26 13:52 | 22.07504 | -19.59409 | 35068 ft | 463 kts | 21° |
| 2026-04-26 13:53 | 22.13010 | -19.55803 | 35062 ft | 463 kts | 21° |
| 2026-04-26 13:53 | 22.18517 | -19.52188 | 35063 ft | 463 kts | 21° |
| 2026-04-26 13:54 | 22.24023 | -19.48574 | 35085 ft | 463 kts | 22° |
| 2026-04-26 13:54 | 22.29519 | -19.44961 | 35057 ft | 462 kts | 22° |
| 2026-04-26 13:55 | 22.36872 | -19.40095 | 35052 ft | 464 kts | 22° |
| 2026-04-26 13:56 | 22.46042 | -19.34065 | 35043 ft | 465 kts | 22° |
| 2026-04-26 13:56 | 22.51561 | -19.30415 | 35051 ft | 465 kts | 22° |
| 2026-04-26 13:57 | 22.57085 | -19.26758 | 35088 ft | 465 kts | 24° |
| 2026-04-26 13:57 | 22.62607 | -19.23104 | 35074 ft | 465 kts | 24° |
| 2026-04-26 13:58 | 22.68132 | -19.19449 | 35069 ft | 466 kts | 24° |
| 2026-04-26 13:58 | 22.73656 | -19.15785 | 35064 ft | 465 kts | 24° |
| 2026-04-26 13:59 | 22.79177 | -19.12127 | 35062 ft | 465 kts | 24° |
| 2026-04-26 13:59 | 22.84701 | -19.08457 | 35058 ft | 466 kts | 24° |
| 2026-04-26 14:00 | 22.95772 | -19.01105 | 35084 ft | 467 kts | 25° |
| 2026-04-26 14:01 | 23.01302 | -18.97408 | 35076 ft | 467 kts | 25° |
| 2026-04-26 14:01 | 23.06833 | -18.93711 | 35072 ft | 467 kts | 25° |
| 2026-04-26 14:02 | 23.12363 | -18.90022 | 35070 ft | 466 kts | 25° |
| 2026-04-26 14:02 | 23.17891 | -18.86339 | 35063 ft | 466 kts | 25° |
| 2026-04-26 14:03 | 23.23413 | -18.82642 | 35081 ft | 466 kts | 26° |
| 2026-04-26 14:03 | 23.28929 | -18.78947 | 35072 ft | 466 kts | 26° |
| 2026-04-26 14:04 | 23.34448 | -18.75244 | 35068 ft | 466 kts | 26° |
| 2026-04-26 14:04 | 23.39964 | -18.71545 | 35067 ft | 466 kts | 26° |
| 2026-04-26 14:05 | 23.45485 | -18.67847 | 35060 ft | 465 kts | 26° |
| 2026-04-26 14:05 | 23.50989 | -18.64147 | 35054 ft | 465 kts | 26° |
| 2026-04-26 14:06 | 23.56497 | -18.60446 | 35052 ft | 465 kts | 26° |
| 2026-04-26 14:06 | 23.62001 | -18.56735 | 35050 ft | 465 kts | 26° |
| 2026-04-26 14:07 | 23.67511 | -18.53020 | 35051 ft | 466 kts | 26° |
| 2026-04-26 14:07 | 23.72984 | -18.49325 | 35054 ft | 466 kts | 26° |
| 2026-04-26 14:08 | 23.78496 | -18.45599 | 35057 ft | 466 kts | 26° |
| 2026-04-26 14:08 | 23.84013 | -18.41873 | 35060 ft | 466 kts | 26° |
| 2026-04-26 14:09 | 23.89534 | -18.38139 | 35073 ft | 467 kts | 26° |
| 2026-04-26 14:09 | 23.95054 | -18.34396 | 35070 ft | 467 kts | 26° |
| 2026-04-26 14:10 | 24.00570 | -18.30653 | 35058 ft | 466 kts | 26° |
| 2026-04-26 14:10 | 24.06079 | -18.26916 | 35057 ft | 466 kts | 26° |
| 2026-04-26 14:11 | 24.14343 | -18.21298 | 35048 ft | 466 kts | 26° |
| 2026-04-26 14:11 | 24.19849 | -18.17556 | 35044 ft | 466 kts | 26° |
| 2026-04-26 14:12 | 24.25354 | -18.13808 | 35068 ft | 466 kts | 27° |
| 2026-04-26 14:12 | 24.30857 | -18.10055 | 35058 ft | 466 kts | 27° |
| 2026-04-26 14:13 | 24.39112 | -18.04414 | 35046 ft | 467 kts | 27° |
| 2026-04-26 14:14 | 24.44624 | -18.00641 | 35045 ft | 467 kts | 27° |
| 2026-04-26 14:14 | 24.50147 | -17.96856 | 35042 ft | 468 kts | 27° |
| 2026-04-26 14:15 | 24.55669 | -17.93070 | 35066 ft | 468 kts | 27° |
| 2026-04-26 14:15 | 24.61200 | -17.89279 | 35059 ft | 469 kts | 27° |
| 2026-04-26 14:16 | 24.66738 | -17.85480 | 35060 ft | 469 kts | 27° |
| 2026-04-26 14:16 | 24.72276 | -17.81675 | 35059 ft | 469 kts | 27° |
| 2026-04-26 14:17 | 24.77813 | -17.77863 | 35052 ft | 469 kts | 27° |
| 2026-04-26 14:17 | 24.83312 | -17.74077 | 35062 ft | 470 kts | 27° |
| 2026-04-26 14:18 | 24.88850 | -17.70255 | 35069 ft | 470 kts | 27° |
| 2026-04-26 14:18 | 24.94395 | -17.66424 | 35050 ft | 471 kts | 27° |
| 2026-04-26 14:19 | 25.00041 | -17.62806 | 35044 ft | 465 kts | 18° |
| 2026-04-26 14:19 | 25.06144 | -17.60684 | 35040 ft | 459 kts | 9° |
| 2026-04-26 14:20 | 25.12305 | -17.58815 | 35042 ft | 459 kts | 10° |
| 2026-04-26 14:20 | 25.18468 | -17.56933 | 35041 ft | 459 kts | 10° |
| 2026-04-26 14:21 | 25.24633 | -17.55046 | 35057 ft | 460 kts | 10° |
| 2026-04-26 14:21 | 25.30811 | -17.53150 | 35050 ft | 461 kts | 9° |
| 2026-04-26 14:22 | 25.36994 | -17.51267 | 35053 ft | 461 kts | 9° |
| 2026-04-26 14:22 | 25.43178 | -17.49379 | 35051 ft | 461 kts | 9° |
| 2026-04-26 14:23 | 25.49361 | -17.47478 | 35046 ft | 461 kts | 10° |
| 2026-04-26 14:23 | 25.55549 | -17.45576 | 35055 ft | 462 kts | 10° |
| 2026-04-26 14:24 | 25.60697 | -17.43994 | 35055 ft | 462 kts | 9° |
| 2026-04-26 14:24 | 25.67905 | -17.41781 | 35052 ft | 463 kts | 10° |
| 2026-04-26 14:25 | 25.74109 | -17.39868 | 35053 ft | 463 kts | 10° |
| 2026-04-26 14:25 | 25.79308 | -17.38266 | 35045 ft | 463 kts | 10° |
| 2026-04-26 14:26 | 25.85526 | -17.36353 | 35067 ft | 464 kts | 10° |
| 2026-04-26 14:26 | 25.91751 | -17.34441 | 35058 ft | 464 kts | 10° |
| 2026-04-26 14:27 | 25.97982 | -17.32510 | 35054 ft | 465 kts | 10° |
| 2026-04-26 14:27 | 26.04220 | -17.30576 | 35054 ft | 466 kts | 10° |
| 2026-04-26 14:28 | 26.10417 | -17.28659 | 35052 ft | 465 kts | 10° |
| 2026-04-26 14:28 | 26.16658 | -17.26716 | 35059 ft | 466 kts | 11° |
| 2026-04-26 14:29 | 26.22905 | -17.24779 | 35060 ft | 466 kts | 11° |
| 2026-04-26 14:29 | 26.29156 | -17.22839 | 35058 ft | 466 kts | 11° |
| 2026-04-26 14:30 | 26.35410 | -17.20904 | 35060 ft | 466 kts | 11° |
| 2026-04-26 14:30 | 26.41662 | -17.18957 | 35062 ft | 467 kts | 11° |
| 2026-04-26 14:31 | 26.47921 | -17.16997 | 35081 ft | 467 kts | 11° |
| 2026-04-26 14:31 | 26.54178 | -17.15034 | 35077 ft | 467 kts | 11° |
| 2026-04-26 14:32 | 26.60436 | -17.13079 | 35080 ft | 467 kts | 11° |
| 2026-04-26 14:32 | 26.66687 | -17.11122 | 35078 ft | 467 kts | 11° |
| 2026-04-26 14:33 | 26.72940 | -17.09166 | 35064 ft | 467 kts | 11° |
| 2026-04-26 14:33 | 26.79157 | -17.07228 | 35069 ft | 467 kts | 11° |
| 2026-04-26 14:34 | 26.85415 | -17.05301 | 35071 ft | 465 kts | 7° |
| 2026-04-26 14:34 | 26.91757 | -17.04826 | 35052 ft | 452 kts | 348° |
| 2026-04-26 14:35 | 26.97853 | -17.06211 | 35059 ft | 446 kts | 341° |
| 2026-04-26 14:35 | 27.03899 | -17.07804 | 35089 ft | 447 kts | 342° |
| 2026-04-26 14:36 | 27.09956 | -17.09385 | 35064 ft | 447 kts | 342° |
| 2026-04-26 14:36 | 27.16014 | -17.10978 | 35063 ft | 447 kts | 342° |
| 2026-04-26 14:37 | 27.22069 | -17.12585 | 35064 ft | 447 kts | 342° |
| 2026-04-26 14:37 | 27.28128 | -17.14192 | 35063 ft | 447 kts | 342° |
| 2026-04-26 14:38 | 27.34193 | -17.15794 | 35077 ft | 448 kts | 342° |
| 2026-04-26 14:38 | 27.40263 | -17.17396 | 35072 ft | 448 kts | 342° |
| 2026-04-26 14:39 | 27.46291 | -17.18997 | 35068 ft | 448 kts | 342° |
| 2026-04-26 14:39 | 27.52360 | -17.20613 | 35065 ft | 448 kts | 342° |
| 2026-04-26 14:40 | 27.58429 | -17.22230 | 35081 ft | 448 kts | 342° |
| 2026-04-26 14:40 | 27.64504 | -17.23846 | 35072 ft | 449 kts | 342° |
| 2026-04-26 14:41 | 27.70582 | -17.25459 | 35072 ft | 449 kts | 342° |
| 2026-04-26 14:41 | 27.76662 | -17.27083 | 35068 ft | 449 kts | 342° |
| 2026-04-26 14:42 | 27.82740 | -17.28710 | 35065 ft | 449 kts | 342° |
| 2026-04-26 14:42 | 27.88822 | -17.30341 | 35076 ft | 449 kts | 343° |
| 2026-04-26 14:43 | 27.94901 | -17.31975 | 35072 ft | 449 kts | 343° |
| 2026-04-26 14:43 | 27.98004 | -17.32498 | 35067 ft | 454 kts | 354° |
| 2026-04-26 14:43 | 28.01172 | -17.32424 | 35065 ft | 458 kts | 4° |
| 2026-04-26 14:44 | 28.07367 | -17.30622 | 35057 ft | 462 kts | 15° |
| 2026-04-26 14:44 | 28.13484 | -17.28370 | 35086 ft | 462 kts | 15° |
| 2026-04-26 14:45 | 28.19609 | -17.26133 | 35087 ft | 462 kts | 15° |
| 2026-04-26 14:45 | 28.25687 | -17.23902 | 35087 ft | 462 kts | 15° |
| 2026-04-26 14:46 | 28.31795 | -17.21644 | 35087 ft | 461 kts | 15° |
| 2026-04-26 14:46 | 28.37896 | -17.19384 | 35085 ft | 461 kts | 15° |
| 2026-04-26 14:47 | 28.43994 | -17.17121 | 35092 ft | 461 kts | 16° |
| 2026-04-26 14:47 | 28.50085 | -17.14871 | 35094 ft | 460 kts | 16° |
| 2026-04-26 14:48 | 28.56169 | -17.12617 | 35088 ft | 460 kts | 16° |
| 2026-04-26 14:48 | 28.62247 | -17.10357 | 35087 ft | 459 kts | 16° |
| 2026-04-26 14:49 | 28.68324 | -17.08104 | 35083 ft | 459 kts | 16° |
| 2026-04-26 14:49 | 28.74399 | -17.05832 | 35100 ft | 460 kts | 16° |
| 2026-04-26 14:50 | 28.80468 | -17.03556 | 35082 ft | 459 kts | 16° |
| 2026-04-26 14:50 | 28.86535 | -17.01294 | 35076 ft | 458 kts | 16° |
| 2026-04-26 14:51 | 28.92600 | -16.99035 | 35072 ft | 458 kts | 16° |
| 2026-04-26 14:51 | 28.98665 | -16.96776 | 35070 ft | 459 kts | 16° |
| 2026-04-26 14:52 | 29.04726 | -16.94499 | 35091 ft | 459 kts | 16° |
| 2026-04-26 14:52 | 29.10791 | -16.92219 | 35087 ft | 459 kts | 16° |
| 2026-04-26 14:53 | 29.16854 | -16.89947 | 35087 ft | 458 kts | 16° |
| 2026-04-26 14:53 | 29.22908 | -16.87666 | 35090 ft | 458 kts | 16° |
| 2026-04-26 14:54 | 29.28961 | -16.85401 | 35083 ft | 457 kts | 16° |
| 2026-04-26 14:54 | 29.35005 | -16.83133 | 35095 ft | 457 kts | 17° |
| 2026-04-26 14:55 | 29.41005 | -16.80869 | 35089 ft | 457 kts | 17° |
| 2026-04-26 14:55 | 29.47034 | -16.78591 | 35086 ft | 456 kts | 17° |
| 2026-04-26 14:56 | 29.53058 | -16.76311 | 35080 ft | 456 kts | 17° |
| 2026-04-26 14:56 | 29.59080 | -16.74028 | 35077 ft | 456 kts | 17° |
| 2026-04-26 14:57 | 29.65099 | -16.71751 | 35078 ft | 456 kts | 17° |
| 2026-04-26 14:57 | 29.71124 | -16.69464 | 35073 ft | 456 kts | 17° |
| 2026-04-26 14:58 | 29.77149 | -16.67170 | 35065 ft | 456 kts | 17° |
| 2026-04-26 14:58 | 29.83174 | -16.64872 | 35066 ft | 456 kts | 17° |
| 2026-04-26 14:59 | 29.89197 | -16.62566 | 35078 ft | 456 kts | 17° |
| 2026-04-26 14:59 | 29.95224 | -16.60271 | 35075 ft | 456 kts | 17° |
| 2026-04-26 15:00 | 30.01251 | -16.57970 | 35079 ft | 456 kts | 17° |
| 2026-04-26 15:00 | 30.07274 | -16.55666 | 35078 ft | 456 kts | 17° |
| 2026-04-26 15:01 | 30.13299 | -16.53351 | 35082 ft | 456 kts | 17° |
| 2026-04-26 15:01 | 30.19325 | -16.51041 | 35080 ft | 456 kts | 17° |
| 2026-04-26 15:02 | 30.25352 | -16.48728 | 35052 ft | 457 kts | 17° |
| 2026-04-26 15:02 | 30.31389 | -16.46407 | 35060 ft | 457 kts | 17° |
| 2026-04-26 15:03 | 30.37424 | -16.44081 | 35064 ft | 457 kts | 17° |
| 2026-04-26 15:03 | 30.43461 | -16.41760 | 35064 ft | 457 kts | 17° |
| 2026-04-26 15:04 | 30.49497 | -16.39432 | 35071 ft | 457 kts | 17° |
| 2026-04-26 15:04 | 30.55534 | -16.37097 | 35062 ft | 457 kts | 17° |
| 2026-04-26 15:05 | 30.61533 | -16.34768 | 35053 ft | 458 kts | 17° |
| 2026-04-26 15:05 | 30.67573 | -16.32423 | 35065 ft | 458 kts | 17° |
| 2026-04-26 15:06 | 30.73620 | -16.30084 | 35065 ft | 459 kts | 17° |
| 2026-04-26 15:06 | 30.79676 | -16.27740 | 35074 ft | 459 kts | 17° |
| 2026-04-26 15:07 | 30.88750 | -16.24202 | 35080 ft | 458 kts | 17° |
| 2026-04-26 15:07 | 30.94796 | -16.21838 | 35084 ft | 458 kts | 17° |
| 2026-04-26 15:08 | 31.00840 | -16.19478 | 35077 ft | 458 kts | 17° |
| 2026-04-26 15:08 | 31.06893 | -16.17118 | 35087 ft | 459 kts | 17° |
| 2026-04-26 15:09 | 31.12945 | -16.14753 | 35083 ft | 459 kts | 17° |
| 2026-04-26 15:09 | 31.18994 | -16.12379 | 35081 ft | 459 kts | 17° |
| 2026-04-26 15:10 | 31.24021 | -16.10407 | 35084 ft | 458 kts | 17° |
| 2026-04-26 15:10 | 31.31089 | -16.07631 | 35076 ft | 458 kts | 17° |
| 2026-04-26 15:11 | 31.37131 | -16.05252 | 35077 ft | 458 kts | 18° |
| 2026-04-26 15:11 | 31.43176 | -16.02905 | 35082 ft | 457 kts | 15° |
| 2026-04-26 15:12 | 31.49319 | -16.00996 | 35079 ft | 456 kts | 12° |
| 2026-04-26 15:12 | 31.55514 | -15.99363 | 35083 ft | 456 kts | 11° |
| 2026-04-26 15:13 | 31.61659 | -15.97698 | 35091 ft | 456 kts | 12° |
| 2026-04-26 15:13 | 31.67828 | -15.95934 | 35079 ft | 456 kts | 13° |
| 2026-04-26 15:14 | 31.73989 | -15.94138 | 35077 ft | 456 kts | 13° |
| 2026-04-26 15:14 | 31.80154 | -15.92342 | 35073 ft | 456 kts | 13° |
| 2026-04-26 15:15 | 31.86320 | -15.90551 | 35075 ft | 457 kts | 13° |
| 2026-04-26 15:15 | 31.92487 | -15.88760 | 35091 ft | 456 kts | 12° |
| 2026-04-26 15:16 | 31.97610 | -15.87277 | 35092 ft | 456 kts | 13° |
| 2026-04-26 15:16 | 32.03769 | -15.85485 | 35089 ft | 456 kts | 13° |
| 2026-04-26 15:17 | 32.08924 | -15.83986 | 35106 ft | 455 kts | 12° |
| 2026-04-26 15:17 | 32.16076 | -15.81904 | 35105 ft | 455 kts | 13° |
| 2026-04-26 15:18 | 32.22218 | -15.80118 | 35111 ft | 454 kts | 13° |
| 2026-04-26 15:18 | 32.28345 | -15.78326 | 35101 ft | 453 kts | 13° |
| 2026-04-26 15:19 | 32.34466 | -15.76521 | 35101 ft | 453 kts | 13° |
| 2026-04-26 15:19 | 32.40589 | -15.74732 | 35105 ft | 453 kts | 13° |
| 2026-04-26 15:20 | 32.46667 | -15.72955 | 35089 ft | 453 kts | 13° |
| 2026-04-26 15:20 | 32.52786 | -15.71144 | 35113 ft | 453 kts | 13° |
| 2026-04-26 15:21 | 32.58900 | -15.69325 | 35105 ft | 453 kts | 13° |
| 2026-04-26 15:21 | 32.65023 | -15.67527 | 35087 ft | 453 kts | 13° |
| 2026-04-26 15:22 | 32.71150 | -15.65738 | 35095 ft | 454 kts | 13° |
| 2026-04-26 15:22 | 32.77276 | -15.63934 | 35081 ft | 453 kts | 13° |
| 2026-04-26 15:23 | 32.83394 | -15.62110 | 35105 ft | 453 kts | 13° |
| 2026-04-26 15:23 | 32.89515 | -15.60283 | 35124 ft | 453 kts | 12° |
| 2026-04-26 15:24 | 32.95634 | -15.58461 | 35136 ft | 453 kts | 13° |
| 2026-04-26 15:24 | 33.01750 | -15.56644 | 35123 ft | 452 kts | 13° |
| 2026-04-26 15:25 | 33.06817 | -15.55137 | 35128 ft | 451 kts | 13° |